logo dgac
Martes 23 de Julio del 2019
Buscar por aerodromo o helipuerto
Ingrese nombre de aeródromo, localidad o designador OACI:
METAR del 23-07-2019 a las 10:00 UTC
METAR SCIP 231000Z 35004KT 310V010 9999 SCT020 BKN040 19/16 Q1022 NOSIG
Viento: dirección 350 grados, velocidad 4 nudos
Viento con dirección variable entre 310 y 010 grados
Visibilidad: 10 km o más
Nubes: Nubosidad parcial a 2000 pies sobre el nivel del aeródromo
Nubes: Nublado a 4000 pies sobre el nivel del aeródromo
Temperatura: 19 °C
Rocío: 16 °C
Humedad_relativa: 83%
Presión: 1022 hPa
No se esperan cambios significativos en las próximas 2 horas
METAR del 23-07-2019 a las 09:00 UTC
METAR SCIP 230900Z 31005KT 9999 SCT020 BKN040 19/15 Q1022 NOSIG
Viento: dirección 310 grados, velocidad 5 nudos
Visibilidad: 10 km o más
Nubes: Nubosidad parcial a 2000 pies sobre el nivel del aeródromo
Nubes: Nublado a 4000 pies sobre el nivel del aeródromo
Temperatura: 19 °C
Rocío: 15 °C
Humedad_relativa: 78%
Presión: 1022 hPa
No se esperan cambios significativos en las próximas 2 horas
METAR del 23-07-2019 a las 08:00 UTC
METAR SCIP 230800Z 02008KT 350V050 9999 FEW020 SCT040 18/15 Q1022 NOSIG
Viento: dirección 020 grados, velocidad 8 nudos
Viento con dirección variable entre 350 y 050 grados
Visibilidad: 10 km o más
Nubes: Escasa nubosidad a 2000 pies sobre el nivel del aeródromo
Nubes: Nubosidad parcial a 4000 pies sobre el nivel del aeródromo
Temperatura: 18 °C
Rocío: 15 °C
Humedad_relativa: 83%
Presión: 1022 hPa
No se esperan cambios significativos en las próximas 2 horas
METAR del 23-07-2019 a las 08:00 UTC
METAR SCIP 230800Z 02008KT 350V050 9999 FEW020 SCT040 18/15 Q1022 NOSIG
Viento: dirección 020 grados, velocidad 8 nudos
Viento con dirección variable entre 350 y 050 grados
Visibilidad: 10 km o más
Nubes: Escasa nubosidad a 2000 pies sobre el nivel del aeródromo
Nubes: Nubosidad parcial a 4000 pies sobre el nivel del aeródromo
Temperatura: 18 °C
Rocío: 15 °C
Humedad_relativa: 83%
Presión: 1022 hPa
No se esperan cambios significativos en las próximas 2 horas
METAR del 23-07-2019 a las 08:00 UTC
METAR SCIP 230800Z 02008KT 350V050 9999 FEW020 SCT040 18/15 Q1022 NOSIG
Viento: dirección 020 grados, velocidad 8 nudos
Viento con dirección variable entre 350 y 050 grados
Visibilidad: 10 km o más
Nubes: Escasa nubosidad a 2000 pies sobre el nivel del aeródromo
Nubes: Nubosidad parcial a 4000 pies sobre el nivel del aeródromo
Temperatura: 18 °C
Rocío: 15 °C
Humedad_relativa: 83%
Presión: 1022 hPa
No se esperan cambios significativos en las próximas 2 horas
METAR del 23-07-2019 a las 07:00 UTC
METAR SCIP 230700Z 02007KT 330V050 9999 SCT020 BKN040 19/16 Q1023 NOSIG
Viento: dirección 020 grados, velocidad 7 nudos
Viento con dirección variable entre 330 y 050 grados
Visibilidad: 10 km o más
Nubes: Nubosidad parcial a 2000 pies sobre el nivel del aeródromo
Nubes: Nublado a 4000 pies sobre el nivel del aeródromo
Temperatura: 19 °C
Rocío: 16 °C
Humedad_relativa: 83%
Presión: 1023 hPa
No se esperan cambios significativos en las próximas 2 horas
METAR del 23-07-2019 a las 06:00 UTC
METAR SCIP 230600Z 03009KT 9999 SCT020 BKN040 19/16 Q1023 NOSIG
Viento: dirección 030 grados, velocidad 9 nudos
Visibilidad: 10 km o más
Nubes: Nubosidad parcial a 2000 pies sobre el nivel del aeródromo
Nubes: Nublado a 4000 pies sobre el nivel del aeródromo
Temperatura: 19 °C
Rocío: 16 °C
Humedad_relativa: 83%
Presión: 1023 hPa
No se esperan cambios significativos en las próximas 2 horas
METAR del 23-07-2019 a las 05:00 UTC
METAR SCIP 230500Z 01006KT 330V040 9999 SCT020 BKN040 19/16 Q1024 NOSIG
Viento: dirección 010 grados, velocidad 6 nudos
Viento con dirección variable entre 330 y 040 grados
Visibilidad: 10 km o más
Nubes: Nubosidad parcial a 2000 pies sobre el nivel del aeródromo
Nubes: Nublado a 4000 pies sobre el nivel del aeródromo
Temperatura: 19 °C
Rocío: 16 °C
Humedad_relativa: 83%
Presión: 1024 hPa
No se esperan cambios significativos en las próximas 2 horas
METAR del 23-07-2019 a las 04:00 UTC
METAR SCIP 230400Z VRB02KT 9999 SCT020 BKN040 19/16 Q1024 NOSIG
Viento: dirección variable, velocidad 2 nudos
Visibilidad: 10 km o más
Nubes: Nubosidad parcial a 2000 pies sobre el nivel del aeródromo
Nubes: Nublado a 4000 pies sobre el nivel del aeródromo
Temperatura: 19 °C
Rocío: 16 °C
Humedad_relativa: 83%
Presión: 1024 hPa
No se esperan cambios significativos en las próximas 2 horas
METAR del 23-07-2019 a las 03:00 UTC
METAR SCIP 230300Z 32007KT 9999 SCT015 BKN020 BKN040 19/16 Q1024 NOSIG
Viento: dirección 320 grados, velocidad 7 nudos
Visibilidad: 10 km o más
Nubes: Nubosidad parcial a 1500 pies sobre el nivel del aeródromo
Nubes: Nublado a 2000 pies sobre el nivel del aeródromo
Nubes: Nublado a 4000 pies sobre el nivel del aeródromo
Temperatura: 19 °C
Rocío: 16 °C
Humedad_relativa: 83%
Presión: 1024 hPa
No se esperan cambios significativos en las próximas 2 horas